createdAt,value
2017-10-19T00:01:36.549Z,31.13
2017-10-19T00:04:04.191Z,32.73
2017-10-19T00:06:31.706Z,34.50
2017-10-19T00:08:59.292Z,30.93
2017-10-19T00:11:26.857Z,30.57
2017-10-19T00:13:55.955Z,34.67
2017-10-19T00:16:24.273Z,31.17
2017-10-19T00:18:52.671Z,27.80
2017-10-19T00:21:20.222Z,30.03
2017-10-19T00:23:47.765Z,28.70
2017-10-19T00:26:16.068Z,29.70
2017-10-19T00:28:43.652Z,28.10
2017-10-19T00:31:11.192Z,29.10
2017-10-19T00:33:38.791Z,26.73
2017-10-19T00:36:06.452Z,23.93
2017-10-19T00:38:34.011Z,26.47
2017-10-19T00:41:01.533Z,24.57
2017-10-19T00:43:29.052Z,24.70
2017-10-19T00:45:56.577Z,28.43
2017-10-19T00:48:24.112Z,23.47
2017-10-19T00:50:51.671Z,25.10
2017-10-19T00:53:19.276Z,23.57
2017-10-19T00:55:46.796Z,24.30
2017-10-19T00:58:14.319Z,23.20
2017-10-19T01:00:41.908Z,23.70
2017-10-19T01:03:09.439Z,24.30
2017-10-19T01:05:37.045Z,22.73
2017-10-19T01:08:04.595Z,22.80
2017-10-19T01:10:32.221Z,22.90
2017-10-19T01:13:00.534Z,24.00
2017-10-19T01:15:28.092Z,28.17
2017-10-19T01:17:55.650Z,24.13
2017-10-19T01:20:23.175Z,25.70
2017-10-19T01:22:52.239Z,25.70
2017-10-19T01:25:19.877Z,25.47
2017-10-19T01:27:47.404Z,23.60
2017-10-19T01:30:15.707Z,23.30
2017-10-19T01:32:43.225Z,23.63
2017-10-19T01:35:10.838Z,24.83
2017-10-19T01:37:38.387Z,24.33
2017-10-19T01:40:05.898Z,26.43
2017-10-19T01:42:33.415Z,26.10
2017-10-19T01:45:00.971Z,26.17
2017-10-19T01:47:28.532Z,23.30
2017-10-19T01:50:00.108Z,26.50
2017-10-19T01:52:27.624Z,26.17
2017-10-19T01:54:55.908Z,24.67
2017-10-19T01:57:24.230Z,23.10
2017-10-19T01:59:51.738Z,23.47
2017-10-19T02:02:20.085Z,23.97
2017-10-19T02:04:47.660Z,23.50
2017-10-19T02:07:16.701Z,27.30
2017-10-19T02:09:44.272Z,25.77
2017-10-19T02:12:11.860Z,26.37
2017-10-19T02:14:39.415Z,22.70
2017-10-19T02:17:06.946Z,25.57
2017-10-19T02:19:34.516Z,24.70
2017-10-19T02:22:02.098Z,23.17
2017-10-19T02:24:29.667Z,24.40
2017-10-19T02:26:57.212Z,25.10
2017-10-19T02:29:24.743Z,28.43
2017-10-19T02:31:52.352Z,23.03
2017-10-19T02:34:19.907Z,22.23
2017-10-19T02:36:47.543Z,24.90
2017-10-19T02:39:15.095Z,21.00
2017-10-19T02:41:42.822Z,21.83
2017-10-19T02:44:10.421Z,21.50
2017-10-19T02:46:37.964Z,21.53
2017-10-19T02:49:06.327Z,18.80
2017-10-19T02:51:34.637Z,19.37
2017-10-19T02:54:02.202Z,19.20
2017-10-19T02:56:29.728Z,17.40
2017-10-19T02:58:58.096Z,19.37
2017-10-19T03:01:26.456Z,18.87
2017-10-19T03:03:54.008Z,20.50
2017-10-19T03:06:21.565Z,21.90
2017-10-19T03:08:49.198Z,20.50
2017-10-19T03:11:16.740Z,21.83
2017-10-19T03:13:45.038Z,20.60
2017-10-19T03:16:12.566Z,23.30
2017-10-19T03:18:40.849Z,23.30
2017-10-19T03:21:09.144Z,21.60
2017-10-19T03:23:36.779Z,24.33
2017-10-19T03:26:05.064Z,20.47
2017-10-19T03:28:33.374Z,20.50
2017-10-19T03:31:00.896Z,19.37
2017-10-19T03:33:28.499Z,17.20
2017-10-19T03:35:56.054Z,18.33
2017-10-19T03:38:23.626Z,18.73
2017-10-19T03:40:51.151Z,18.63
2017-10-19T03:43:19.451Z,16.60
2017-10-19T03:45:47.022Z,18.67
2017-10-19T03:48:14.564Z,17.10
2017-10-19T03:50:42.879Z,19.37
2017-10-19T03:53:10.428Z,18.57
2017-10-19T03:55:37.946Z,18.00
2017-10-19T03:58:06.223Z,17.07
2017-10-19T04:00:34.497Z,18.50
2017-10-19T04:03:02.804Z,18.90
2017-10-19T04:05:30.365Z,17.90
2017-10-19T04:07:57.870Z,18.60
2017-10-19T04:10:25.400Z,18.03
2017-10-19T04:12:52.918Z,20.10
2017-10-19T04:15:21.205Z,20.57
2017-10-19T04:17:49.509Z,19.03
2017-10-19T04:20:17.083Z,17.80
2017-10-19T04:22:44.591Z,21.43
2017-10-19T04:25:12.928Z,17.47
2017-10-19T04:27:40.498Z,18.70
2017-10-19T04:30:09.554Z,17.73
2017-10-19T04:32:37.088Z,18.50
2017-10-19T04:35:05.499Z,16.83
2017-10-19T04:37:33.007Z,18.70
2017-10-19T04:40:00.545Z,20.40
2017-10-19T04:42:28.133Z,18.80
2017-10-19T04:44:56.450Z,18.90
2017-10-19T04:47:24.019Z,17.93
2017-10-19T04:49:51.545Z,17.87
2017-10-19T04:52:19.145Z,19.27
2017-10-19T04:54:46.723Z,17.30
2017-10-19T04:57:14.276Z,18.27
2017-10-19T04:59:41.803Z,17.03
2017-10-19T05:02:10.103Z,16.30
2017-10-19T05:04:37.633Z,16.77
2017-10-19T05:07:06.616Z,16.83
2017-10-19T05:09:34.152Z,17.80
2017-10-19T05:12:01.688Z,17.77
2017-10-19T05:14:29.203Z,17.87
2017-10-19T05:16:57.499Z,16.90
2017-10-19T05:19:25.016Z,16.83
2017-10-19T05:21:52.652Z,17.80
2017-10-19T05:24:20.207Z,17.83
2017-10-19T05:26:47.854Z,17.50
2017-10-19T05:29:15.362Z,17.30
2017-10-19T05:31:42.904Z,16.70
2017-10-19T05:34:10.448Z,17.47
2017-10-19T05:36:38.006Z,18.10
2017-10-19T05:39:05.552Z,16.80
2017-10-19T05:41:33.077Z,17.20
2017-10-19T05:44:00.688Z,16.53
2017-10-19T05:46:28.206Z,17.60
2017-10-19T05:48:56.550Z,17.10
2017-10-19T05:51:24.067Z,17.30
2017-10-19T05:53:51.647Z,19.57
2017-10-19T05:56:19.162Z,17.90
2017-10-19T05:58:47.506Z,19.00
2017-10-19T06:01:15.033Z,17.73
2017-10-19T06:03:42.591Z,16.93
2017-10-19T06:06:10.155Z,16.80
2017-10-19T06:08:37.692Z,16.37
2017-10-19T06:11:05.982Z,17.03
2017-10-19T06:13:33.551Z,16.90
2017-10-19T06:16:01.077Z,17.17
2017-10-19T06:18:29.540Z,17.10
2017-10-19T06:20:57.055Z,16.20
2017-10-19T06:23:24.631Z,18.80
2017-10-19T06:25:52.194Z,17.40
2017-10-19T06:28:19.731Z,16.57
2017-10-19T06:30:47.408Z,17.50
2017-10-19T06:33:14.948Z,15.60
2017-10-19T06:35:42.511Z,16.80
2017-10-19T06:38:10.025Z,17.40
2017-10-19T06:40:37.557Z,16.90
2017-10-19T06:43:05.070Z,16.90
2017-10-19T06:45:33.384Z,17.00
2017-10-19T06:48:00.927Z,17.87
2017-10-19T06:50:28.469Z,15.23
2017-10-19T06:52:56.743Z,16.43
2017-10-19T06:55:24.269Z,16.40
2017-10-19T06:57:51.795Z,16.03
2017-10-19T07:00:19.330Z,19.30
2017-10-19T07:02:47.615Z,17.90
2017-10-19T07:05:15.889Z,16.60
2017-10-19T07:07:44.196Z,17.77
2017-10-19T07:10:11.746Z,19.50
2017-10-19T07:12:39.277Z,21.20
2017-10-19T07:15:07.567Z,20.03
2017-10-19T07:17:35.850Z,19.30
2017-10-19T07:20:03.374Z,18.57
2017-10-19T07:22:30.991Z,19.10
2017-10-19T07:24:58.542Z,19.73
2017-10-19T07:27:26.108Z,19.50
2017-10-19T07:29:53.690Z,19.20
2017-10-19T07:32:21.211Z,20.47
2017-10-19T07:34:49.527Z,19.17
2017-10-19T07:37:17.112Z,19.63
2017-10-19T07:39:44.684Z,19.40
2017-10-19T07:42:12.199Z,19.90
2017-10-19T07:44:39.762Z,22.87
2017-10-19T07:47:07.344Z,22.30
2017-10-19T07:49:34.855Z,20.20
2017-10-19T07:52:03.200Z,19.63
2017-10-19T07:54:31.538Z,19.10
2017-10-19T07:56:59.102Z,20.50
2017-10-19T07:59:26.755Z,19.10
2017-10-19T08:01:54.302Z,22.33
2017-10-19T08:04:21.822Z,19.17
2017-10-19T08:06:49.356Z,19.53
2017-10-19T08:09:16.863Z,20.80
2017-10-19T08:11:45.136Z,20.70
2017-10-19T08:14:12.644Z,20.40
2017-10-19T08:16:40.171Z,20.27
2017-10-19T08:19:08.473Z,20.70
2017-10-19T08:21:36.025Z,20.90
2017-10-19T08:24:03.587Z,19.83
2017-10-19T08:26:31.111Z,21.70
2017-10-19T08:28:58.631Z,20.03
2017-10-19T08:31:26.200Z,19.47
2017-10-19T08:33:53.840Z,20.87
2017-10-19T08:36:21.397Z,18.30
2017-10-19T08:38:48.907Z,19.90
2017-10-19T08:41:17.935Z,20.00
2017-10-19T08:43:46.212Z,19.80
2017-10-19T08:46:14.500Z,19.70
2017-10-19T08:48:42.064Z,19.90
2017-10-19T08:51:09.580Z,19.93
2017-10-19T08:53:37.178Z,20.40
2017-10-19T08:56:04.751Z,19.30
2017-10-19T08:58:32.275Z,20.43
2017-10-19T09:01:00.559Z,19.90
2017-10-19T09:03:28.848Z,18.50
2017-10-19T09:05:56.414Z,18.47
2017-10-19T09:08:23.943Z,19.17
2017-10-19T09:10:51.456Z,21.50
2017-10-19T09:13:18.987Z,20.23
2017-10-19T09:15:47.266Z,19.90
2017-10-19T09:18:14.839Z,20.27
2017-10-19T09:20:42.390Z,20.23
2017-10-19T09:23:09.895Z,19.40
2017-10-19T09:25:37.419Z,19.23
2017-10-19T09:28:04.928Z,20.37
2017-10-19T09:30:32.490Z,19.27
2017-10-19T09:33:00.008Z,20.93
2017-10-19T09:35:27.569Z,21.57
2017-10-19T09:37:55.083Z,20.80
2017-10-19T09:40:22.592Z,20.40
2017-10-19T09:42:50.100Z,18.73
2017-10-19T09:45:17.611Z,21.70
2017-10-19T09:47:45.132Z,19.67
2017-10-19T09:50:13.410Z,20.70
2017-10-19T09:52:41.681Z,20.53
2017-10-19T09:55:09.206Z,21.07
2017-10-19T09:57:36.723Z,20.23
2017-10-19T10:00:04.282Z,19.00
2017-10-19T10:02:31.859Z,19.30
2017-10-19T10:04:59.406Z,19.83
2017-10-19T10:07:26.970Z,20.27
2017-10-19T10:09:54.503Z,21.30
2017-10-19T10:12:22.803Z,19.70
2017-10-19T10:14:51.181Z,20.67
2017-10-19T10:17:18.742Z,20.37
2017-10-19T10:19:46.298Z,22.20
2017-10-19T10:22:14.579Z,20.80
2017-10-19T10:24:42.875Z,19.67
2017-10-19T10:27:10.385Z,21.00
2017-10-19T10:29:37.990Z,20.93
2017-10-19T10:32:05.542Z,20.43
2017-10-19T10:34:33.119Z,20.20
2017-10-19T10:37:00.679Z,21.03
2017-10-19T10:39:28.226Z,22.43
2017-10-19T10:41:55.803Z,22.30
2017-10-19T10:44:23.311Z,20.20
2017-10-19T10:46:50.840Z,22.10
2017-10-19T10:49:18.352Z,23.20
2017-10-19T10:51:46.766Z,21.80
2017-10-19T10:54:14.295Z,20.63
2017-10-19T10:56:42.585Z,20.93
2017-10-19T10:59:10.102Z,20.83
2017-10-19T11:01:37.658Z,22.20
2017-10-19T11:04:05.263Z,21.30
2017-10-19T11:06:32.836Z,20.97
2017-10-19T11:09:00.362Z,23.20
2017-10-19T11:11:28.770Z,23.03
2017-10-19T11:13:56.352Z,22.83
2017-10-19T11:16:23.995Z,22.43
2017-10-19T11:18:51.502Z,23.43
2017-10-19T11:21:19.011Z,21.00
2017-10-19T11:23:46.517Z,21.83
2017-10-19T11:26:14.034Z,22.07
2017-10-19T11:28:41.599Z,22.50
2017-10-19T11:31:09.107Z,21.53
2017-10-19T11:33:36.618Z,19.73
2017-10-19T11:36:04.129Z,21.93
2017-10-19T11:38:31.735Z,20.80
2017-10-19T11:40:59.249Z,20.63
2017-10-19T11:43:26.803Z,20.00
2017-10-19T11:45:54.422Z,19.77
2017-10-19T11:48:21.960Z,19.67
2017-10-19T11:50:50.236Z,18.50
2017-10-19T11:53:18.646Z,18.13
2017-10-19T11:55:46.159Z,18.80
2017-10-19T11:58:13.756Z,19.13
2017-10-19T12:00:41.269Z,18.50
2017-10-19T12:03:08.884Z,18.37
2017-10-19T12:05:36.418Z,18.27
2017-10-19T12:08:04.720Z,18.27
2017-10-19T12:10:32.282Z,17.50
2017-10-19T12:12:59.840Z,17.90
2017-10-19T12:15:28.128Z,17.57
2017-10-19T12:17:55.685Z,16.80
2017-10-19T12:20:23.241Z,17.33
2017-10-19T12:22:50.785Z,16.00
2017-10-19T12:25:19.055Z,15.47
2017-10-19T12:27:47.364Z,15.13
2017-10-19T12:30:14.877Z,14.73
2017-10-19T12:32:42.475Z,14.67
2017-10-19T12:35:10.039Z,13.60
2017-10-19T12:37:37.604Z,12.47
2017-10-19T12:40:05.166Z,12.60
2017-10-19T12:42:32.687Z,11.70
2017-10-19T12:45:00.210Z,12.43
2017-10-19T12:47:27.852Z,11.33
2017-10-19T12:49:55.407Z,11.47
2017-10-19T12:52:22.961Z,11.60
2017-10-19T12:54:50.522Z,11.50
2017-10-19T12:57:18.054Z,11.03
2017-10-19T12:59:46.394Z,10.43
2017-10-19T13:02:13.910Z,10.43
2017-10-19T13:04:42.191Z,10.03
2017-10-19T13:07:10.465Z,9.67
2017-10-19T13:09:38.040Z,9.40
2017-10-19T13:12:05.561Z,9.50
2017-10-19T13:14:33.181Z,9.77
2017-10-19T13:17:00.718Z,8.50
2017-10-19T13:19:28.295Z,9.80
2017-10-19T13:21:55.853Z,10.47
2017-10-19T13:24:23.403Z,8.47
2017-10-19T13:26:50.918Z,8.63
2017-10-19T13:29:19.255Z,8.37
2017-10-19T13:31:46.766Z,8.63
2017-10-19T13:34:14.276Z,8.87
2017-10-19T13:36:41.788Z,8.33
2017-10-19T13:39:09.290Z,7.83
2017-10-19T13:41:36.854Z,7.70
2017-10-19T13:44:04.377Z,8.20
2017-10-19T13:46:32.670Z,6.83
2017-10-19T13:49:00.980Z,8.20
2017-10-19T13:51:28.524Z,6.70
2017-10-19T13:53:56.079Z,6.77
2017-10-19T13:56:23.590Z,7.57
2017-10-19T13:58:51.095Z,7.17
2017-10-19T14:01:18.620Z,6.87
2017-10-19T14:03:46.123Z,7.97
2017-10-19T14:06:13.671Z,8.10
2017-10-19T14:08:41.240Z,7.07
2017-10-19T14:11:08.804Z,7.40
2017-10-19T14:13:36.359Z,7.37
2017-10-19T14:16:03.882Z,7.73
2017-10-19T14:18:31.401Z,7.07
2017-10-19T14:20:58.917Z,7.20
2017-10-19T14:23:27.215Z,7.20
2017-10-19T14:25:54.734Z,7.60
2017-10-19T14:28:22.347Z,7.70
2017-10-19T14:30:49.852Z,7.50
2017-10-19T14:33:17.379Z,7.97
2017-10-19T14:35:44.903Z,7.70
2017-10-19T14:38:13.178Z,7.37
2017-10-19T14:40:41.466Z,7.30
2017-10-19T14:43:09.039Z,7.83
2017-10-19T14:45:36.551Z,7.60
2017-10-19T14:48:04.160Z,8.20
2017-10-19T14:50:31.715Z,7.67
2017-10-19T14:52:59.250Z,7.70
2017-10-19T14:55:27.544Z,9.27
2017-10-19T14:57:55.085Z,8.13
2017-10-19T15:00:22.591Z,8.10
2017-10-19T15:02:50.134Z,7.90
2017-10-19T15:05:17.691Z,8.63
2017-10-19T15:07:45.194Z,7.60
2017-10-19T15:10:12.703Z,8.27
2017-10-19T15:12:40.994Z,8.17
2017-10-19T15:15:08.510Z,8.57
2017-10-19T15:17:36.039Z,7.67
2017-10-19T15:20:03.562Z,7.77
2017-10-19T15:22:31.087Z,7.37
2017-10-19T15:24:58.727Z,8.10
2017-10-19T15:27:26.248Z,8.20
2017-10-19T15:29:53.815Z,8.97
2017-10-19T15:32:21.335Z,8.80
2017-10-19T15:34:48.935Z,8.73
2017-10-19T15:37:16.451Z,8.67
2017-10-19T15:39:43.979Z,8.67
2017-10-19T15:42:11.511Z,8.20
2017-10-19T15:44:39.068Z,8.50
2017-10-19T15:47:06.594Z,7.90
2017-10-19T15:49:34.104Z,8.70
2017-10-19T15:52:01.660Z,8.30
2017-10-19T15:54:29.219Z,8.77
2017-10-19T15:56:56.775Z,8.50
2017-10-19T15:59:24.309Z,9.37
2017-10-19T16:01:52.644Z,9.87
2017-10-19T16:04:20.177Z,9.80
2017-10-19T16:06:47.720Z,11.50
2017-10-19T16:09:15.992Z,8.77
2017-10-19T16:11:44.286Z,9.80
2017-10-19T16:14:11.799Z,8.33
2017-10-19T16:16:39.323Z,11.30
2017-10-19T16:19:06.844Z,10.70
2017-10-19T16:21:35.140Z,9.67
2017-10-19T16:24:03.423Z,9.70
2017-10-19T16:26:30.991Z,9.50
2017-10-19T16:28:58.551Z,11.10
2017-10-19T16:31:26.075Z,10.90
2017-10-19T16:33:53.665Z,10.67
2017-10-19T16:36:21.232Z,14.13
2017-10-19T16:38:48.797Z,13.00
2017-10-19T16:44:07.110Z,17.03
2017-10-19T16:46:34.626Z,16.03
2017-10-19T16:49:02.169Z,15.00
2017-10-19T16:51:30.446Z,15.70
2017-10-19T16:53:58.743Z,14.77
2017-10-19T16:56:26.275Z,16.90
2017-10-19T16:58:54.587Z,18.83
2017-10-19T17:01:22.144Z,18.43
2017-10-19T17:03:49.690Z,18.80
2017-10-19T17:06:17.255Z,18.70
2017-10-19T17:08:44.819Z,20.90
2017-10-19T17:11:12.392Z,19.93
2017-10-19T17:13:39.928Z,20.67
2017-10-19T17:16:08.326Z,20.77
2017-10-19T17:18:35.884Z,21.00
2017-10-19T17:21:03.395Z,21.83
2017-10-19T17:23:30.921Z,21.57
2017-10-19T17:25:58.445Z,21.83
2017-10-19T17:31:17.362Z,20.57
2017-10-19T17:33:44.916Z,22.43
2017-10-19T17:36:12.488Z,24.07
2017-10-19T17:38:40.061Z,25.13
2017-10-19T17:41:07.604Z,22.67
2017-10-19T17:43:35.126Z,22.23
2017-10-19T17:46:03.445Z,24.00
2017-10-19T17:48:30.990Z,24.90
2017-10-19T17:50:58.539Z,26.20
2017-10-19T17:53:26.051Z,23.77
2017-10-19T17:55:53.654Z,25.80
2017-10-19T17:58:21.230Z,25.37
2017-10-19T18:00:48.783Z,25.60
2017-10-19T18:03:16.343Z,27.43
2017-10-19T18:05:43.929Z,26.97
2017-10-19T18:08:11.478Z,26.13
2017-10-19T18:10:38.987Z,26.90
2017-10-19T18:13:06.594Z,26.37
2017-10-19T18:15:34.102Z,24.60
2017-10-19T18:18:01.631Z,25.70
2017-10-19T18:20:29.142Z,25.93
2017-10-19T18:22:57.418Z,24.07
2017-10-19T18:25:25.736Z,26.23
2017-10-19T18:27:53.264Z,26.07
2017-10-19T18:30:21.621Z,25.87
2017-10-19T18:32:49.156Z,26.47
2017-10-19T18:35:16.756Z,26.87
2017-10-19T18:37:45.152Z,26.20
2017-10-19T18:40:12.707Z,28.57
2017-10-19T18:42:41.018Z,28.67
2017-10-19T18:45:08.648Z,30.63
2017-10-19T18:47:36.176Z,32.43
2017-10-19T18:50:04.503Z,31.60
2017-10-19T18:52:32.147Z,32.40
2017-10-19T18:55:00.470Z,29.03
2017-10-19T18:57:28.009Z,32.60
2017-10-19T18:59:55.534Z,29.60
2017-10-19T19:02:23.958Z,32.23
2017-10-19T19:04:51.508Z,32.03
2017-10-19T19:07:19.088Z,30.90
2017-10-19T19:09:46.626Z,28.97
2017-10-19T19:12:14.182Z,31.10
2017-10-19T19:14:41.826Z,31.63
2017-10-19T19:17:09.359Z,29.53
2017-10-19T19:19:38.447Z,30.43
2017-10-19T19:22:05.980Z,31.00
2017-10-19T19:24:33.536Z,28.60
2017-10-19T19:27:01.052Z,28.33
2017-10-19T19:29:28.623Z,29.07
2017-10-19T19:31:57.698Z,29.20
2017-10-19T19:34:25.267Z,27.90
2017-10-19T19:36:52.800Z,28.10
2017-10-19T19:39:20.521Z,29.40
2017-10-19T19:41:48.847Z,28.00
2017-10-19T19:44:16.500Z,28.40
2017-10-19T19:46:44.050Z,27.50
2017-10-19T19:49:11.590Z,28.70
2017-10-19T19:51:39.141Z,26.33
2017-10-19T19:54:07.426Z,28.67
2017-10-19T19:56:34.962Z,28.00
2017-10-19T19:59:03.270Z,28.13
2017-10-19T20:01:30.838Z,27.37
2017-10-19T20:03:58.350Z,27.57
2017-10-19T20:06:26.660Z,28.13
2017-10-19T20:08:54.187Z,28.87
2017-10-19T20:11:21.833Z,27.40
2017-10-19T20:13:49.484Z,25.30
2017-10-19T20:16:17.012Z,28.73
2017-10-19T20:18:44.582Z,29.00
2017-10-19T20:21:12.118Z,26.90
2017-10-19T20:23:40.414Z,25.20
2017-10-19T20:26:08.008Z,28.27
2017-10-19T20:28:35.520Z,27.37
2017-10-19T20:31:03.916Z,27.60
2017-10-19T20:33:31.482Z,26.07
2017-10-19T20:35:59.005Z,26.50
2017-10-19T20:38:27.299Z,27.07
2017-10-19T20:40:55.578Z,26.80
2017-10-19T20:43:23.986Z,25.50
2017-10-19T20:45:51.527Z,26.27
2017-10-19T20:48:19.114Z,24.40
2017-10-19T20:50:46.677Z,24.07
2017-10-19T20:53:14.260Z,25.27
2017-10-19T20:55:41.804Z,23.17
2017-10-19T20:58:09.370Z,23.80
2017-10-19T21:00:36.926Z,23.30
2017-10-19T21:03:04.521Z,21.60
2017-10-19T21:05:32.043Z,22.40
2017-10-19T21:07:59.592Z,22.87
2017-10-19T21:10:27.112Z,23.10
2017-10-19T21:12:55.475Z,22.17
2017-10-19T21:15:23.030Z,21.17
2017-10-19T21:17:50.584Z,18.73
2017-10-19T21:20:18.135Z,20.40
2017-10-19T21:22:45.770Z,18.73
2017-10-19T21:25:13.320Z,16.13
2017-10-19T21:27:40.934Z,16.00
2017-10-19T21:30:08.459Z,15.37
2017-10-19T21:32:36.015Z,15.77
2017-10-19T21:35:03.599Z,15.17
2017-10-19T21:37:31.143Z,16.07
2017-10-19T21:39:58.808Z,16.70
2017-10-19T21:42:26.388Z,17.57
2017-10-19T21:44:53.987Z,16.77
2017-10-19T21:47:22.289Z,15.43
2017-10-19T21:49:49.876Z,16.30
2017-10-19T21:52:17.414Z,16.07
2017-10-19T21:54:45.045Z,16.80
2017-10-19T21:57:13.473Z,14.57
2017-10-19T21:59:41.073Z,15.20
2017-10-19T22:02:08.633Z,15.53
2017-10-19T22:04:36.241Z,14.63
2017-10-19T22:07:03.919Z,14.07
2017-10-19T22:09:31.665Z,16.00
2017-10-19T22:11:59.402Z,14.37
2017-10-19T22:14:27.802Z,13.60
2017-10-19T22:16:56.173Z,14.60
2017-10-19T22:19:24.722Z,13.57
2017-10-19T22:21:52.303Z,13.13
2017-10-19T22:24:19.848Z,14.80
2017-10-19T22:26:47.536Z,13.90
2017-10-19T22:29:15.857Z,14.40
2017-10-19T22:31:43.412Z,13.70
2017-10-19T22:34:10.961Z,13.73
2017-10-19T22:36:38.572Z,14.10
2017-10-19T22:39:06.127Z,12.27
2017-10-19T22:41:33.861Z,13.60
2017-10-19T22:44:01.433Z,13.93
2017-10-19T22:46:29.077Z,13.67
2017-10-19T22:48:56.814Z,13.80
2017-10-19T22:51:27.108Z,13.90
2017-10-19T22:53:54.673Z,13.53
2017-10-19T22:56:22.272Z,13.73
2017-10-19T22:58:50.768Z,13.00
2017-10-19T23:01:18.453Z,13.50
2017-10-19T23:03:46.143Z,13.60
2017-10-19T23:06:13.762Z,12.87
2017-10-19T23:08:41.940Z,13.87
2017-10-19T23:11:09.544Z,13.00
2017-10-19T23:13:37.203Z,13.93
2017-10-19T23:16:04.888Z,13.07
2017-10-19T23:18:33.255Z,13.47
2017-10-19T23:21:00.831Z,12.57
2017-10-19T23:23:29.191Z,12.93
2017-10-19T23:25:56.718Z,12.50
2017-10-19T23:28:24.403Z,12.73
2017-10-19T23:30:52.028Z,12.37
2017-10-19T23:33:19.576Z,12.70
2017-10-19T23:35:47.149Z,13.17
2017-10-19T23:38:14.738Z,13.07
2017-10-19T23:40:42.259Z,12.37
2017-10-19T23:43:10.678Z,12.87
2017-10-19T23:45:38.234Z,14.90
2017-10-19T23:48:05.856Z,13.23
2017-10-19T23:50:34.253Z,12.87
2017-10-19T23:53:01.936Z,12.53
2017-10-19T23:55:29.522Z,12.53
2017-10-19T23:57:57.092Z,13.23
